Time;durP1;ratioP1;P1;durP2;ratioP2;P2;SDS_P1;SDS_P2;PMS_P1;PMS_P2;Temp;Humidity;BMP_temperature;BMP_pressure;BME280_temperature;BME280_humidity;BME280_pressure;Samples;Min_cycle;Max_cycle;Signal;HPM_P1;HPM_P2
2021/06/30 00:01:24;;;;;;;9.00;5.75;;;17.00;99.90;;;;;;4992400;28;20491;-79
2021/06/30 00:03:51;;;;;;;6.93;5.57;;;17.10;99.90;;;;;;4990652;28;20074;-81
2021/06/30 00:06:19;;;;;;;7.93;6.22;;;17.10;99.90;;;;;;4992417;28;20050;-79
2021/06/30 00:08:45;;;;;;;5.90;5.30;;;17.10;99.90;;;;;;4991423;28;20046;-82
2021/06/30 00:11:13;;;;;;;5.45;4.13;;;17.10;99.90;;;;;;4976185;28;20125;-79
2021/06/30 00:13:40;;;;;;;5.35;4.25;;;17.00;99.90;;;;;;4991676;28;20133;-81
2021/06/30 00:16:08;;;;;;;5.60;4.45;;;17.00;99.90;;;;;;4992398;28;20054;-79
2021/06/30 00:18:36;;;;;;;4.97;4.18;;;16.90;99.90;;;;;;4992246;28;20050;-78
2021/06/30 00:21:03;;;;;;;8.00;5.00;;;16.80;99.90;;;;;;4991875;28;20145;-78
2021/06/30 00:23:30;;;;;;;10.27;4.35;;;16.80;99.90;;;;;;4990944;28;20058;-79
2021/06/30 00:25:57;;;;;;;5.93;4.90;;;16.70;99.90;;;;;;4991976;28;20077;-81
2021/06/30 00:28:24;;;;;;;9.73;4.60;;;16.60;99.90;;;;;;4992208;28;20097;-79
2021/06/30 00:30:51;;;;;;;6.95;4.53;;;16.60;99.90;;;;;;4992824;28;20078;-80
2021/06/30 00:33:19;;;;;;;11.43;4.95;;;16.50;99.90;;;;;;4991933;28;20052;-79
2021/06/30 00:35:46;;;;;;;8.05;4.80;;;16.50;99.90;;;;;;4992117;28;20086;-79
2021/06/30 00:38:13;;;;;;;11.68;5.50;;;16.40;99.90;;;;;;4992159;28;20249;-79
2021/06/30 00:40:40;;;;;;;6.25;4.93;;;16.40;99.90;;;;;;4992181;28;20134;-80
2021/06/30 00:43:06;;;;;;;12.23;5.40;;;16.40;99.90;;;;;;4991911;28;20153;-77
2021/06/30 00:45:33;;;;;;;8.25;5.20;;;16.40;99.90;;;;;;4991482;28;20137;-79
2021/06/30 00:48:00;;;;;;;6.82;4.93;;;16.40;99.90;;;;;;4991721;28;20586;-78
2021/06/30 00:50:28;;;;;;;6.13;5.00;;;16.40;99.90;;;;;;4991424;28;20471;-78
2021/06/30 00:52:55;;;;;;;7.05;4.95;;;16.50;99.90;;;;;;4990673;28;20130;-77
2021/06/30 00:55:23;;;;;;;8.43;5.70;;;16.50;99.90;;;;;;4980154;28;20061;-79
2021/06/30 00:57:50;;;;;;;8.38;5.30;;;16.50;99.90;;;;;;4975387;28;20139;-80
2021/06/30 01:00:17;;;;;;;8.80;5.18;;;16.50;99.90;;;;;;4992817;28;20133;-79
2021/06/30 01:02:44;;;;;;;6.90;4.85;;;16.50;99.90;;;;;;4992356;28;20113;-79
2021/06/30 01:05:12;;;;;;;6.18;5.32;;;16.50;99.90;;;;;;4990948;28;20169;-79
2021/06/30 01:07:40;;;;;;;6.72;4.90;;;16.50;99.90;;;;;;4995890;28;20094;-79
2021/06/30 01:10:08;;;;;;;7.28;5.18;;;16.60;99.90;;;;;;4996153;28;20494;-79
2021/06/30 01:12:35;;;;;;;5.70;4.63;;;16.50;99.90;;;;;;4995866;28;20133;-79
2021/06/30 01:15:04;;;;;;;9.13;5.45;;;16.50;99.90;;;;;;4995888;28;20137;-79
2021/06/30 01:17:31;;;;;;;10.70;5.40;;;16.50;99.90;;;;;;4995987;28;20058;-78
2021/06/30 01:19:58;;;;;;;6.70;5.10;;;16.50;99.90;;;;;;4996022;28;20141;-79
2021/06/30 01:22:25;;;;;;;6.90;5.53;;;16.50;99.90;;;;;;4995833;28;20086;-78
2021/06/30 01:24:54;;;;;;;8.07;5.13;;;16.60;99.90;;;;;;4995431;28;20052;-78
2021/06/30 01:27:22;;;;;;;8.00;5.50;;;16.50;99.90;;;;;;4995792;28;20141;-78
2021/06/30 01:29:49;;;;;;;8.85;5.40;;;16.50;99.90;;;;;;4996004;28;20086;-78
2021/06/30 01:32:16;;;;;;;10.63;5.45;;;16.50;99.90;;;;;;4995307;28;20082;-78
2021/06/30 01:34:43;;;;;;;6.78;5.10;;;16.50;99.90;;;;;;4995515;28;20137;-78
2021/06/30 01:37:12;;;;;;;8.98;6.05;;;16.50;99.90;;;;;;4996128;28;20317;-79
2021/06/30 01:39:39;;;;;;;8.65;5.50;;;16.60;99.90;;;;;;4997519;28;20503;-79
2021/06/30 01:42:07;;;;;;;13.98;6.57;;;16.50;99.90;;;;;;4998076;28;20141;-78
2021/06/30 01:44:34;;;;;;;10.25;7.00;;;16.50;99.90;;;;;;4997683;28;20064;-78
2021/06/30 01:47:02;;;;;;;9.43;6.32;;;16.40;99.90;;;;;;4995674;28;20569;-79
2021/06/30 01:49:29;;;;;;;10.85;6.55;;;16.40;99.90;;;;;;4995088;28;20054;-82
2021/06/30 01:51:56;;;;;;;13.40;6.28;;;16.30;99.90;;;;;;4995245;28;20133;-78
2021/06/30 01:54:22;;;;;;;10.90;6.00;;;16.30;99.90;;;;;;4994882;28;20084;-78
2021/06/30 01:56:50;;;;;;;12.57;6.63;;;16.30;99.90;;;;;;4995230;28;20470;-78
2021/06/30 01:59:18;;;;;;;9.07;5.93;;;16.30;99.90;;;;;;4994905;28;20137;-78
2021/06/30 02:01:45;;;;;;;8.00;5.72;;;16.40;99.90;;;;;;4994647;28;20100;-78
2021/06/30 02:04:14;;;;;;;12.15;5.97;;;16.30;99.90;;;;;;4994539;28;20089;-79
2021/06/30 02:06:44;;;;;;;9.20;5.72;;;16.30;99.90;;;;;;4994613;28;20137;-79
2021/06/30 02:09:12;;;;;;;11.77;5.40;;;16.30;99.90;;;;;;4994596;28;20499;-78
2021/06/30 02:11:40;;;;;;;8.38;5.43;;;16.30;99.90;;;;;;4994596;28;20046;-78
2021/06/30 02:14:09;;;;;;;14.80;5.32;;;16.30;99.90;;;;;;4994098;28;20161;-78
2021/06/30 02:16:38;;;;;;;8.50;5.10;;;16.10;99.90;;;;;;4993818;28;20134;-78
2021/06/30 02:19:07;;;;;;;7.22;5.40;;;16.00;99.90;;;;;;4994938;28;20081;-79
2021/06/30 02:21:35;;;;;;;10.13;5.80;;;15.90;99.90;;;;;;4994265;28;20487;-79
2021/06/30 02:24:02;;;;;;;11.32;6.18;;;15.80;99.90;;;;;;4994076;28;20514;-78
2021/06/30 02:26:29;;;;;;;7.97;5.90;;;15.80;99.90;;;;;;4994386;28;20129;-78
2021/06/30 02:28:57;;;;;;;7.85;5.95;;;15.80;99.90;;;;;;4994516;28;20140;-78
2021/06/30 02:31:24;;;;;;;10.65;6.50;;;15.80;99.90;;;;;;4994523;28;20050;-78
2021/06/30 02:33:52;;;;;;;7.85;6.07;;;15.80;99.90;;;;;;4994010;28;20085;-78
2021/06/30 02:36:20;;;;;;;16.60;7.28;;;15.80;99.90;;;;;;4994174;28;20141;-78
2021/06/30 02:38:47;;;;;;;13.25;6.82;;;15.70;99.90;;;;;;4994055;28;20165;-78
2021/06/30 02:41:14;;;;;;;11.85;6.47;;;15.70;99.90;;;;;;4994032;28;20606;-78
2021/06/30 02:43:42;;;;;;;13.10;6.93;;;15.70;99.90;;;;;;4993687;28;20046;-78
2021/06/30 02:46:09;;;;;;;11.25;6.40;;;15.70;99.90;;;;;;4994219;28;20050;-79
2021/06/30 02:48:36;;;;;;;11.75;7.03;;;15.60;99.90;;;;;;4993965;28;20053;-81
2021/06/30 02:51:04;;;;;;;16.48;6.80;;;15.70;99.90;;;;;;4994264;28;20141;-79
2021/06/30 02:53:31;;;;;;;14.60;6.15;;;15.60;99.90;;;;;;4994010;28;20153;-78
2021/06/30 02:56:00;;;;;;;11.90;6.38;;;15.60;99.90;;;;;;4994400;28;20085;-80
2021/06/30 02:58:27;;;;;;;10.15;6.30;;;15.60;99.90;;;;;;4993889;28;20101;-79
2021/06/30 03:00:54;;;;;;;12.75;6.13;;;15.70;99.90;;;;;;4993634;28;20057;-81
2021/06/30 03:03:21;;;;;;;16.88;6.60;;;15.70;99.90;;;;;;5030554;23;20088;-79
2021/06/30 03:05:47;;;;;;;16.30;6.18;;;15.80;99.90;;;;;;5024370;28;20060;-77
2021/06/30 03:08:16;;;;;;;13.63;6.60;;;15.80;99.90;;;;;;5032754;28;20188;-77
2021/06/30 03:10:43;;;;;;;17.40;6.53;;;15.80;99.90;;;;;;5032761;28;20129;-77
2021/06/30 03:13:10;;;;;;;14.88;6.60;;;15.80;99.90;;;;;;5033001;28;20072;-78
2021/06/30 03:15:37;;;;;;;15.90;6.97;;;15.90;99.90;;;;;;5034757;28;20125;-79
2021/06/30 03:18:04;;;;;;;9.45;6.32;;;15.90;99.90;;;;;;5034858;28;20128;-77
2021/06/30 03:20:31;;;;;;;10.93;7.30;;;15.90;99.90;;;;;;5034654;28;20128;-79
2021/06/30 03:22:58;;;;;;;9.32;7.07;;;15.90;99.90;;;;;;5037191;28;20077;-80
2021/06/30 03:25:26;;;;;;;11.48;7.57;;;15.90;99.90;;;;;;5036604;28;20454;-79
2021/06/30 03:27:53;;;;;;;14.93;7.55;;;15.90;99.90;;;;;;5035383;28;20053;-78
2021/06/30 03:30:20;;;;;;;13.45;7.40;;;16.00;99.90;;;;;;5036492;28;20529;-79
2021/06/30 03:32:47;;;;;;;17.10;7.53;;;16.00;99.90;;;;;;5037438;28;20545;-80
2021/06/30 03:35:14;;;;;;;25.98;8.30;;;16.00;99.90;;;;;;5039894;28;20077;-79
2021/06/30 03:37:41;;;;;;;13.10;8.45;;;16.00;99.90;;;;;;5038001;28;20141;-78
2021/06/30 03:40:09;;;;;;;13.77;8.32;;;16.10;99.90;;;;;;5039344;28;20060;-79
2021/06/30 03:42:37;;;;;;;12.90;8.25;;;16.00;99.90;;;;;;5037309;28;20049;-78
2021/06/30 03:45:06;;;;;;;12.25;8.45;;;16.00;99.90;;;;;;5036694;28;20136;-79
2021/06/30 03:47:33;;;;;;;17.88;8.95;;;16.00;99.90;;;;;;5035238;28;20171;-78
2021/06/30 03:50:00;;;;;;;10.98;8.75;;;16.10;99.90;;;;;;5035006;28;20049;-78
2021/06/30 03:52:27;;;;;;;14.20;9.32;;;16.10;99.90;;;;;;5034406;28;20045;-79
2021/06/30 03:54:54;;;;;;;14.70;10.27;;;16.10;99.90;;;;;;5034206;28;20133;-78
2021/06/30 03:57:21;;;;;;;21.58;10.48;;;16.10;99.90;;;;;;5036355;28;20112;-80
2021/06/30 03:59:49;;;;;;;17.08;10.50;;;16.10;99.90;;;;;;5035784;28;20081;-78
2021/06/30 04:02:16;;;;;;;25.55;10.50;;;16.10;99.90;;;;;;5035582;28;20105;-79
2021/06/30 04:04:43;;;;;;;13.65;9.57;;;16.10;99.90;;;;;;5034468;28;20140;-79
2021/06/30 04:07:11;;;;;;;23.35;9.98;;;16.20;99.90;;;;;;5033521;28;20239;-79
2021/06/30 04:09:38;;;;;;;15.68;9.75;;;16.20;99.90;;;;;;5033141;28;20049;-79
2021/06/30 04:12:06;;;;;;;19.85;9.35;;;16.30;99.90;;;;;;5033350;28;20073;-79
2021/06/30 04:14:32;;;;;;;15.55;8.65;;;16.30;99.90;;;;;;5033099;28;20099;-79
2021/06/30 04:17:01;;;;;;;19.02;8.82;;;16.40;99.90;;;;;;5034123;28;20095;-80
2021/06/30 04:19:27;;;;;;;16.35;9.52;;;16.50;99.90;;;;;;5034304;28;20113;-79
2021/06/30 04:21:54;;;;;;;20.00;9.15;;;16.60;99.90;;;;;;5034279;28;20088;-79
2021/06/30 04:24:21;;;;;;;22.13;8.70;;;16.80;99.90;;;;;;5033377;28;20132;-79
2021/06/30 04:26:48;;;;;;;19.75;8.07;;;16.90;99.90;;;;;;5035512;28;20061;-81
2021/06/30 04:29:15;;;;;;;12.35;7.05;;;17.10;99.90;;;;;;5036249;28;20136;-80
2021/06/30 04:31:42;;;;;;;12.15;6.35;;;17.20;99.90;;;;;;5036685;28;20099;-81
2021/06/30 04:34:10;;;;;;;14.27;6.50;;;17.30;99.90;;;;;;5036065;28;20085;-81
2021/06/30 04:36:37;;;;;;;13.40;6.70;;;17.30;99.90;;;;;;5036589;28;20470;-81
2021/06/30 04:39:04;;;;;;;11.30;6.70;;;17.40;99.90;;;;;;5036922;28;20128;-80
2021/06/30 04:41:30;;;;;;;14.10;6.55;;;17.40;99.90;;;;;;5042371;28;20129;-81
2021/06/30 04:43:57;;;;;;;18.35;7.07;;;17.40;99.90;;;;;;5042180;28;20470;-81
2021/06/30 04:46:24;;;;;;;17.55;7.60;;;17.50;99.90;;;;;;5043128;28;20529;-81
2021/06/30 04:48:51;;;;;;;14.07;7.60;;;17.40;99.90;;;;;;5043814;28;20216;-81
2021/06/30 04:51:21;;;;;;;15.35;6.93;;;17.40;99.90;;;;;;5041626;28;20136;-80
2021/06/30 04:53:50;;;;;;;15.27;6.93;;;17.50;99.90;;;;;;5040185;28;20635;-80
2021/06/30 04:56:16;;;;;;;13.32;6.72;;;17.50;99.90;;;;;;5041641;28;20084;-79
2021/06/30 04:58:43;;;;;;;13.43;7.28;;;17.50;99.90;;;;;;5042489;28;20133;-80
2021/06/30 05:01:10;;;;;;;15.52;7.32;;;17.50;99.90;;;;;;5042425;28;20077;-79
2021/06/30 05:03:37;;;;;;;13.93;6.50;;;17.50;99.90;;;;;;5043295;28;20470;-81
2021/06/30 05:06:04;;;;;;;11.13;6.15;;;17.50;99.90;;;;;;5043867;28;20164;-82
2021/06/30 05:08:32;;;;;;;11.15;5.78;;;17.60;99.90;;;;;;5044170;28;20075;-77
2021/06/30 05:10:59;;;;;;;10.30;6.15;;;17.60;99.90;;;;;;5043477;28;20053;-80
2021/06/30 05:13:26;;;;;;;17.48;6.32;;;17.60;99.90;;;;;;5043092;28;20081;-79
2021/06/30 05:15:53;;;;;;;8.00;5.63;;;17.60;99.90;;;;;;5041851;28;20081;-80
2021/06/30 05:18:20;;;;;;;11.07;5.85;;;17.70;99.90;;;;;;5042054;28;20049;-79
2021/06/30 05:20:47;;;;;;;9.95;5.88;;;17.80;99.90;;;;;;5042167;28;20477;-79
2021/06/30 05:23:14;;;;;;;8.70;5.13;;;17.90;99.90;;;;;;5041504;28;20056;-80
2021/06/30 05:25:42;;;;;;;11.70;5.78;;;18.00;99.90;;;;;;5043732;28;20053;-83
2021/06/30 05:28:09;;;;;;;8.73;5.00;;;18.00;99.90;;;;;;5041817;28;20089;-80
2021/06/30 05:30:36;;;;;;;10.23;5.20;;;18.00;99.90;;;;;;5042863;28;20124;-80
2021/06/30 05:33:03;;;;;;;7.28;4.63;;;18.00;99.90;;;;;;5042837;28;20467;-81
2021/06/30 05:35:30;;;;;;;8.98;5.05;;;18.10;99.90;;;;;;5044730;28;20109;-82
2021/06/30 05:37:57;;;;;;;7.72;4.57;;;18.30;99.90;;;;;;5045096;28;20095;-82
2021/06/30 05:40:23;;;;;;;6.53;4.60;;;18.50;99.90;;;;;;5045272;28;20087;-82
2021/06/30 05:42:55;;;;;;;8.80;4.45;;;18.80;99.90;;;;;;5044388;28;20103;-82
2021/06/30 05:45:22;;;;;;;7.60;4.28;;;19.30;99.90;;;;;;5045699;28;20058;-82
2021/06/30 05:47:50;;;;;;;6.03;3.97;;;20.10;99.90;;;;;;5022749;28;20141;-84
2021/06/30 05:50:20;;;;;;;6.45;3.67;;;21.00;99.90;;;;;;5024664;28;20049;-80
2021/06/30 05:52:47;;;;;;;5.63;4.00;;;21.60;99.90;;;;;;5023309;28;20073;-81
2021/06/30 05:55:14;;;;;;;8.07;4.00;;;22.00;99.90;;;;;;5026375;28;20073;-81
2021/06/30 05:57:41;;;;;;;9.32;4.13;;;21.80;99.90;;;;;;5030312;28;20104;-79
2021/06/30 06:00:13;;;;;;;10.45;4.70;;;21.70;99.90;;;;;;5024873;28;20141;-79
2021/06/30 06:05:35;;;;;;;6.65;4.00;;;21.40;99.90;;;;;;1276754;26;20136;-80
2021/06/30 06:11:48;;;;;;;7.88;4.25;;;21.00;99.90;;;;;;5031460;28;20045;-82
2021/06/30 06:18:02;;;;;;;6.65;4.40;;;20.80;99.90;;;;;;5022056;28;20041;-83
2021/06/30 06:20:52;;;;;;;7.45;4.30;;;21.00;99.90;;;;;;5044237;28;20045;-83
2021/06/30 06:23:19;;;;;;;13.80;4.97;;;21.00;99.90;;;;;;5023418;28;20053;-82
2021/06/30 06:26:06;;;;;;;8.80;5.75;;;20.80;99.90;;;;;;5038721;28;20077;-82
2021/06/30 06:28:34;;;;;;;9.82;5.50;;;20.60;99.90;;;;;;5041355;28;20088;-79
2021/06/30 06:31:05;;;;;;;8.13;5.65;;;20.40;99.90;;;;;;5042946;28;20058;-82
2021/06/30 06:33:33;;;;;;;10.40;5.70;;;20.20;99.90;;;;;;5040952;28;20140;-82
2021/06/30 06:36:08;;;;;;;12.38;5.95;;;20.00;99.90;;;;;;5042569;28;20053;-82
2021/06/30 06:45:53;;;;;;;;;;;;;;;;;;;;;
2021/06/30 06:48:23;;;;;;;;;;;19.30;99.90;;;;;;4896942;29;20071;-79
2021/06/30 06:50:53;;;;;;;8.27;7.20;;;18.90;99.90;;;;;;4918767;29;19978;-80
2021/06/30 06:53:30;;;;;;;7.45;6.28;;;18.60;99.90;;;;;;4959102;28;20050;-80
2021/06/30 06:56:09;;;;;;;7.85;5.90;;;18.40;99.90;;;;;;5015110;28;20050;-80
2021/06/30 06:58:37;;;;;;;6.65;5.75;;;18.30;99.90;;;;;;5038022;28;20060;-79
2021/06/30 07:01:33;;;;;;;11.25;9.00;;;18.30;99.90;;;;;;5038402;28;20045;-79
2021/06/30 07:07:47;;;;;;;10.38;8.02;;;18.10;99.90;;;;;;5040427;28;20069;-80
2021/06/30 07:14:23;;;;;;;;;;;17.80;99.90;;;;;;5038939;28;20049;-79
2021/06/30 07:20:52;;;;;;;17.73;7.35;;;17.70;99.90;;;;;;5040140;28;20514;-81
2021/06/30 07:26:55;;;;;;;10.18;7.20;;;17.90;99.90;;;;;;4994944;28;20073;-79
2021/06/30 07:29:34;;;;;;;9.80;7.80;;;18.00;99.90;;;;;;5037822;28;20117;-79
2021/06/30 07:35:42;;;;;;;10.88;5.45;;;18.30;99.90;;;;;;4917946;29;20139;-80
2021/06/30 07:38:30;;;;;;;17.58;5.22;;;18.60;99.90;;;;;;5030410;28;20127;-80
2021/06/30 07:41:36;;;;;;;;;;;;;;;;;;;;;
2021/06/30 07:47:26;;;;;;;4.20;3.67;;;18.50;99.90;;;;;;5030335;28;20045;-79
2021/06/30 07:50:20;;;;;;;4.85;3.20;;;18.30;99.90;;;;;;5035620;28;20073;-80
2021/06/30 07:52:48;;;;;;;3.85;2.80;;;18.30;99.90;;;;;;5032335;28;20490;-80
2021/06/30 07:58:36;;;;;;;2.30;2.13;;;18.40;99.90;;;;;;4986605;28;20057;-80
2021/06/30 08:01:15;;;;;;;2.33;2.17;;;18.50;99.90;;;;;;5034903;28;20112;-80
2021/06/30 08:11:10;;;;;;;2.03;1.77;;;20.10;99.90;;;;;;5021245;28;20049;-80
2021/06/30 08:20:09;;;;;;;2.25;1.98;;;21.90;99.90;;;;;;4954424;29;20059;-79
2021/06/30 08:22:45;;;;;;;1.98;1.88;;;22.10;99.90;;;;;;5026572;28;20049;-80
2021/06/30 08:25:23;;;;;;;3.03;1.80;;;21.80;99.90;;;;;;5033589;28;20050;-79
2021/06/30 08:27:55;;;;;;;2.22;2.03;;;21.70;99.90;;;;;;5033335;28;20095;-78
2021/06/30 08:30:22;;;;;;;4.57;2.50;;;21.40;99.90;;;;;;5031219;28;20064;-79
2021/06/30 08:32:57;;;;;;;2.03;1.92;;;21.00;99.90;;;;;;5033005;28;20526;-79
2021/06/30 08:35:45;;;;;;;3.10;2.55;;;20.90;99.90;;;;;;5034108;28;20088;-81
2021/06/30 08:38:12;;;;;;;7.03;2.72;;;21.10;99.90;;;;;;5034245;28;20136;-81
2021/06/30 08:40:38;;;;;;;2.70;2.10;;;21.30;99.90;;;;;;5034153;28;20141;-77
2021/06/30 08:43:06;;;;;;;3.50;1.90;;;21.30;99.90;;;;;;5032238;28;20152;-79
2021/06/30 08:45:33;;;;;;;1.88;1.77;;;21.50;99.90;;;;;;5033525;28;20493;-79
2021/06/30 08:48:01;;;;;;;1.83;1.73;;;21.20;99.90;;;;;;5033309;28;20454;-79
2021/06/30 08:50:29;;;;;;;2.38;1.98;;;20.90;99.90;;;;;;5033131;28;20151;-79
2021/06/30 08:52:59;;;;;;;2.63;2.00;;;20.90;99.90;;;;;;5032409;28;20148;-79
2021/06/30 08:55:26;;;;;;;3.33;2.28;;;21.40;99.90;;;;;;5032111;28;20478;-79
2021/06/30 08:57:53;;;;;;;3.55;2.03;;;21.40;99.90;;;;;;5032625;28;20136;-77
2021/06/30 09:00:20;;;;;;;7.13;2.45;;;21.50;99.90;;;;;;5033112;28;20128;-80
2021/06/30 09:02:56;;;;;;;1.75;1.65;;;21.70;99.90;;;;;;5111962;23;20049;31
2021/06/30 09:05:48;;;;;;;2.30;1.60;;;22.10;99.90;;;;;;4937382;29;20449;-80
2021/06/30 09:08:16;;;;;;;4.10;2.08;;;22.20;99.90;;;;;;4939462;29;20162;-80
2021/06/30 09:10:46;;;;;;;2.25;2.05;;;21.70;99.90;;;;;;4939929;29;20099;-80
2021/06/30 09:13:20;;;;;;;2.25;2.00;;;21.30;99.90;;;;;;4939469;29;20052;-80
2021/06/30 09:15:56;;;;;;;2.30;1.60;;;21.10;99.90;;;;;;4942630;29;20036;-78
2021/06/30 09:18:26;;;;;;;2.10;1.90;;;21.30;99.90;;;;;;4940260;29;20051;-79
2021/06/30 09:21:18;;;;;;;3.80;2.10;;;21.60;99.90;;;;;;4940538;29;20123;-80
2021/06/30 09:24:01;;;;;;;2.30;1.73;;;21.80;99.90;;;;;;4939625;29;20051;-80
2021/06/30 09:26:28;;;;;;;5.78;2.03;;;22.00;99.90;;;;;;4940928;29;20585;-79
2021/06/30 09:29:03;;;;;;;1.80;1.70;;;22.20;99.90;;;;;;4943331;29;20079;-80
2021/06/30 09:31:30;;;;;;;1.60;1.50;;;21.90;99.90;;;;;;4943570;29;20055;-80
2021/06/30 09:33:57;;;;;;;1.70;1.60;;;21.40;99.90;;;;;;4942908;29;20138;-80
2021/06/30 09:36:26;;;;;;;1.52;1.42;;;21.20;99.90;;;;;;4942194;29;20376;-80
2021/06/30 09:38:54;;;;;;;4.32;2.67;;;21.00;99.90;;;;;;4943286;29;20130;-79
2021/06/30 09:41:30;;;;;;;3.72;2.13;;;20.90;99.90;;;;;;4943038;29;20155;-80
2021/06/30 09:44:05;;;;;;;1.42;1.33;;;20.90;99.90;;;;;;4943312;29;20115;-80
2021/06/30 09:46:33;;;;;;;2.05;1.73;;;21.00;99.90;;;;;;4944543;29;20048;-78
2021/06/30 09:49:01;;;;;;;1.92;1.83;;;21.30;99.90;;;;;;4943265;29;20130;-78
2021/06/30 09:51:29;;;;;;;1.83;1.73;;;21.70;99.90;;;;;;4948731;29;20056;-79
2021/06/30 09:54:05;;;;;;;2.13;1.90;;;22.40;99.90;;;;;;4950070;29;20539;-78
2021/06/30 09:56:33;;;;;;;1.95;1.85;;;23.10;99.90;;;;;;4946748;29;20483;-80
2021/06/30 09:59:18;;;;;;;1.75;1.65;;;23.30;99.90;;;;;;4944134;29;20392;-79
2021/06/30 10:01:53;;;;;;;2.13;2.03;;;23.50;99.90;;;;;;4944556;29;20497;-79
2021/06/30 10:04:29;;;;;;;2.65;2.08;;;23.60;99.90;;;;;;4968808;28;20606;-80
2021/06/30 10:06:58;;;;;;;2.17;2.08;;;23.40;99.90;;;;;;4982605;28;20053;-80
2021/06/30 10:09:25;;;;;;;3.42;2.08;;;23.10;99.90;;;;;;4981753;28;20115;-81
2021/06/30 10:12:02;;;;;;;2.75;2.55;;;22.40;99.90;;;;;;4981564;28;20126;-80
2021/06/30 10:14:29;;;;;;;2.50;2.30;;;22.20;99.90;;;;;;4981273;28;20129;-80
2021/06/30 10:16:57;;;;;;;2.15;1.95;;;22.30;99.90;;;;;;4981946;28;20075;-80
2021/06/30 10:19:24;;;;;;;2.28;2.15;;;22.10;99.90;;;;;;4981362;28;20119;-81
2021/06/30 10:21:51;;;;;;;2.83;2.63;;;21.70;99.90;;;;;;4980814;28;20097;-80
2021/06/30 10:24:20;;;;;;;4.07;2.70;;;21.30;99.90;;;;;;4981405;28;20490;-81
2021/06/30 10:26:48;;;;;;;3.15;2.58;;;21.10;99.90;;;;;;4983749;28;20468;-79
2021/06/30 10:29:17;;;;;;;3.72;3.00;;;20.80;99.90;;;;;;4991030;28;20047;-79
2021/06/30 10:31:48;;;;;;;2.67;2.45;;;20.50;99.90;;;;;;4988371;28;20058;-81
2021/06/30 10:34:15;;;;;;;2.70;2.50;;;20.70;99.90;;;;;;4982024;28;20113;-81
2021/06/30 10:36:47;;;;;;;2.30;2.20;;;20.60;99.90;;;;;;4981395;28;20139;-81
2021/06/30 10:39:15;;;;;;;3.90;2.50;;;20.60;99.90;;;;;;4980974;28;20133;-80
2021/06/30 10:41:45;;;;;;;4.22;3.17;;;20.60;99.90;;;;;;4982419;28;20149;-79
2021/06/30 10:44:15;;;;;;;3.63;3.20;;;20.70;99.90;;;;;;4986806;28;20054;-78
2021/06/30 10:46:46;;;;;;;2.90;2.33;;;21.00;99.90;;;;;;4994523;28;20041;-79
2021/06/30 10:49:25;;;;;;;3.03;2.33;;;21.20;99.90;;;;;;4994326;28;20085;-79
2021/06/30 10:51:54;;;;;;;3.50;2.28;;;21.50;99.90;;;;;;4981354;28;20129;-79
2021/06/30 10:54:42;;;;;;;4.53;2.20;;;21.70;99.90;;;;;;4980921;28;20058;-79
2021/06/30 10:57:27;;;;;;;2.50;2.30;;;21.80;99.90;;;;;;4986573;28;20130;-79
2021/06/30 11:00:16;;;;;;;4.90;2.15;;;21.80;99.90;;;;;;4978602;28;20054;-79
2021/06/30 11:02:45;;;;;;;1.80;1.70;;;21.90;99.90;;;;;;4977764;28;20101;-77
2021/06/30 11:05:37;;;;;;;1.67;1.58;;;21.80;99.90;;;;;;4976491;28;20055;-78
2021/06/30 11:08:03;;;;;;;2.97;2.50;;;21.90;99.90;;;;;;4975164;28;20082;-77
2021/06/30 11:10:49;;;;;;;3.08;2.63;;;21.60;99.90;;;;;;4977022;28;20463;-78
2021/06/30 11:13:16;;;;;;;3.15;2.85;;;21.30;99.90;;;;;;4978000;28;20134;-78
2021/06/30 11:15:44;;;;;;;2.97;2.78;;;21.00;99.90;;;;;;4979878;28;20133;-79
2021/06/30 11:18:46;;;;;;;3.25;2.90;;;20.70;99.90;;;;;;4980314;28;20062;-79
2021/06/30 11:21:15;;;;;;;2.80;2.60;;;20.40;99.90;;;;;;4983600;28;20370;-80
2021/06/30 11:23:44;;;;;;;2.78;2.58;;;20.30;99.90;;;;;;4988560;28;20050;-79
2021/06/30 11:26:32;;;;;;;3.60;2.70;;;20.20;99.90;;;;;;4993770;28;20050;-78
2021/06/30 11:28:59;;;;;;;3.17;2.88;;;20.30;99.90;;;;;;4989123;28;20197;-78
2021/06/30 11:31:40;;;;;;;3.03;2.83;;;20.50;99.90;;;;;;4974746;28;20105;-76
2021/06/30 11:34:20;;;;;;;4.18;3.20;;;20.90;99.90;;;;;;4975170;28;20062;-78
2021/06/30 11:36:47;;;;;;;3.40;3.10;;;21.20;99.90;;;;;;4979806;28;20114;-79
2021/06/30 11:39:17;;;;;;;6.30;3.75;;;21.30;99.90;;;;;;4980473;28;20053;-78
2021/06/30 11:41:45;;;;;;;6.43;3.83;;;21.40;99.90;;;;;;4983962;28;20078;-79
2021/06/30 11:44:12;;;;;;;4.68;3.90;;;21.30;99.90;;;;;;4981059;28;20047;-79
2021/06/30 11:46:39;;;;;;;4.82;3.90;;;21.10;99.90;;;;;;4981668;28;20066;-80
2021/06/30 11:49:10;;;;;;;4.75;4.20;;;21.10;99.90;;;;;;4983122;28;20550;-78
2021/06/30 11:51:37;;;;;;;4.93;3.92;;;21.00;99.90;;;;;;4992520;28;20047;-79
2021/06/30 11:54:12;;;;;;;4.25;3.55;;;20.80;99.90;;;;;;4984423;28;20074;-78
2021/06/30 11:56:40;;;;;;;4.80;3.75;;;20.70;99.90;;;;;;4978873;28;20054;-79
2021/06/30 11:59:17;;;;;;;3.90;3.40;;;20.40;99.90;;;;;;4976716;28;20507;-78
2021/06/30 12:01:44;;;;;;;4.22;3.60;;;20.40;99.90;;;;;;4979531;28;20106;-79
2021/06/30 12:04:23;;;;;;;3.78;3.25;;;20.30;99.90;;;;;;4980179;28;20377;-79
2021/06/30 12:06:55;;;;;;;3.95;3.60;;;20.30;99.90;;;;;;4980729;28;20070;-79
2021/06/30 12:09:24;;;;;;;4.03;3.63;;;20.20;99.90;;;;;;4981105;28;20050;-78
2021/06/30 12:11:53;;;;;;;4.65;4.00;;;20.10;99.90;;;;;;4981193;28;20047;-78
2021/06/30 12:14:22;;;;;;;5.20;4.60;;;20.20;99.90;;;;;;4980419;28;20467;-78
2021/06/30 12:16:58;;;;;;;5.03;4.25;;;20.00;99.90;;;;;;4979229;28;20133;-78
2021/06/30 12:19:36;;;;;;;6.80;4.40;;;19.90;99.90;;;;;;4992543;28;20081;-79
2021/06/30 12:22:19;;;;;;;6.60;3.92;;;20.00;99.90;;;;;;4992553;28;20055;-79
2021/06/30 12:24:46;;;;;;;5.50;4.32;;;20.00;99.90;;;;;;4995757;28;20061;-80
2021/06/30 12:27:13;;;;;;;5.88;3.70;;;19.90;99.90;;;;;;4996688;28;20070;-78
2021/06/30 12:29:41;;;;;;;3.50;3.20;;;19.80;99.90;;;;;;4991662;28;20518;-77
2021/06/30 12:32:11;;;;;;;3.70;3.38;;;20.00;99.90;;;;;;4980507;28;20139;-79
2021/06/30 12:34:41;;;;;;;4.05;3.50;;;20.10;99.90;;;;;;4978147;28;20133;-78
2021/06/30 12:37:08;;;;;;;3.75;3.30;;;20.10;99.90;;;;;;4979842;28;20047;-78
2021/06/30 12:39:36;;;;;;;4.10;3.70;;;20.20;99.90;;;;;;4979996;28;20050;-80
2021/06/30 12:42:05;;;;;;;6.15;4.00;;;20.20;99.90;;;;;;4979951;28;20086;-79
2021/06/30 12:44:55;;;;;;;4.82;4.13;;;20.10;99.90;;;;;;4978725;28;20051;-79
2021/06/30 12:47:22;;;;;;;4.55;4.10;;;20.10;99.90;;;;;;4980461;28;20147;-78
2021/06/30 12:50:05;;;;;;;9.07;4.68;;;19.90;99.90;;;;;;4980269;28;20106;-79
2021/06/30 12:52:33;;;;;;;6.15;4.68;;;19.70;99.90;;;;;;4979487;28;20126;-79
2021/06/30 12:55:18;;;;;;;5.35;4.85;;;19.70;99.90;;;;;;4980066;28;20235;-79
2021/06/30 12:58:02;;;;;;;6.38;4.72;;;19.80;99.90;;;;;;4979230;28;20086;-79
2021/06/30 13:00:33;;;;;;;5.43;4.90;;;19.70;99.90;;;;;;4979735;28;20073;-79
2021/06/30 13:03:17;;;;;;;5.43;4.57;;;19.70;99.90;;;;;;4982330;28;20502;-79
2021/06/30 13:05:46;;;;;;;5.35;4.40;;;19.80;99.90;;;;;;4981311;28;20074;-79
2021/06/30 13:08:33;;;;;;;5.55;4.35;;;19.90;99.90;;;;;;4979009;28;20129;-79
2021/06/30 13:11:15;;;;;;;6.70;4.88;;;19.90;99.90;;;;;;4984816;28;20110;-79
2021/06/30 13:14:09;;;;;;;5.53;5.03;;;20.00;99.90;;;;;;4984435;28;20082;-78
2021/06/30 13:16:50;;;;;;;6.15;5.55;;;20.20;99.90;;;;;;4982563;28;20113;-81
2021/06/30 13:19:20;;;;;;;7.18;6.47;;;20.30;99.90;;;;;;4982068;28;20066;-78
2021/06/30 13:21:56;;;;;;;8.88;6.53;;;20.30;99.90;;;;;;4985540;28;20058;-79
2021/06/30 13:24:29;;;;;;;7.55;6.30;;;20.30;99.90;;;;;;4979395;28;20089;-78
2021/06/30 13:35:31;;;;;;;5.43;4.90;;;20.40;99.90;;;;;;4983917;28;20065;-79
2021/06/30 13:38:00;;;;;;;8.20;5.60;;;20.40;99.90;;;;;;4983952;28;20051;-79
2021/06/30 13:40:29;;;;;;;6.30;4.85;;;20.30;99.90;;;;;;4983413;28;20093;-79
2021/06/30 13:42:59;;;;;;;5.28;4.78;;;20.30;99.90;;;;;;4984177;28;20085;-79
2021/06/30 13:45:26;;;;;;;6.00;4.60;;;20.30;99.90;;;;;;4984077;28;20086;-79
2021/06/30 13:47:54;;;;;;;5.03;4.53;;;20.30;99.90;;;;;;4984388;28;20111;-80
2021/06/30 13:50:21;;;;;;;5.18;4.50;;;20.10;99.90;;;;;;4983997;28;20119;-78
2021/06/30 13:52:48;;;;;;;5.70;4.47;;;20.10;99.90;;;;;;4984830;28;20074;-78
2021/06/30 13:55:14;;;;;;;7.20;4.80;;;20.10;99.90;;;;;;4985305;28;20055;-79
2021/06/30 13:57:41;;;;;;;5.13;4.63;;;20.10;99.90;;;;;;4983906;28;20061;-79
2021/06/30 14:00:09;;;;;;;5.80;5.20;;;20.20;99.90;;;;;;4984995;28;20074;-79
2021/06/30 14:02:37;;;;;;;6.60;4.82;;;20.40;99.90;;;;;;4984648;28;20086;-79
2021/06/30 14:05:06;;;;;;;5.07;4.57;;;20.60;99.90;;;;;;4984929;28;20503;-79
2021/06/30 14:07:33;;;;;;;5.25;4.75;;;20.70;99.90;;;;;;4984468;28;20078;-79